Romoe Maersk — OXLC2 — position and weather

sailwx.info

Track history (hours):
 
Tides and Currents Weather Stations Pressure Air Temp Water Temp Dewpoint Dewpoint Depression Visibility Wind Speed Wind Dir Waves Ship Positions

Romoe Maersk

Last reported at 2016-May-06 01:34 UTC. Time now 2016-May-25 16:55 UTC.
Position S 27°15' E 153°55'.
Warning: this ship's position is 19 days out of date.

Length 171 m; draft 7.5 m.

Type: Ship. MMSI: 220209000.

Date/timePositionNaut miles runAvg speedWind from/ knotsBaromVisibWave heightAir tempDewpointWater temp
2016-May-06 01:34S 27°15' E 153°55'1313.0
2016-May-06 00:33S 27°03' E 153°49'1211.3
2016-May-05 23:30S 26°52' E 153°44'13 6.8
2016-May-05 21:33S 26°45' E 153°32'8 7.7
2016-May-05 20:33S 26°44' E 153°23'8 7.9
2016-May-05 19:33S 26°43' E 153°14'7 6.8
2016-May-05 18:33S 26°49' E 153°10'1312.9
2016-May-05 17:34S 27°01' E 153°15'1312.9
2016-May-05 16:34S 27°13' E 153°20'1313.0
2016-May-05 15:33S 27°22' E 153°10'1 0.8
2016-May-05 14:28S 27°23' E 153°10'0 0.0
2016-May-05 13:28S 27°23' E 153°10'0 0.0
2016-May-05 12:28S 27°23' E 153°10'0 0.0
2016-May-05 11:28S 27°23' E 153°10'0 0.0
2016-May-05 10:31S 27°23' E 153°10'0 0.0
2016-May-05 09:28S 27°23' E 153°10'0 0.0
2016-May-05 05:28S 27°23' E 153°10'0 0.0
2016-May-04 23:16S 27°23' E 153°10'0 0.0
2016-May-04 22:28S 27°23' E 153°10'0 0.0
2016-May-04 21:22S 27°23' E 153°10'0 0.1
2016-May-04 20:28S 27°23' E 153°10'0 0.1
2016-May-04 19:28S 27°23' E 153°10'2 2.6
2016-May-04 18:33S 27°21' E 153°11'8 8.0
2016-May-04 17:33S 27°15' E 153°17'1111.0
2016-May-04 16:34S 27°04' E 153°18'1312.5
2016-May-04 15:34S 26°54' E 153°11'1110.7
2016-May-04 14:34S 26°43' E 153°10'  
Track history (hours):
 
Tides and Currents Weather Stations Pressure Air Temp Water Temp Dewpoint Dewpoint Depression Visibility Wind Speed Wind Dir Waves Ship Positions

Romoe Maersk

Last reported at 2016-May-06 01:34 UTC. Time now 2016-May-25 16:55 UTC.
Position S 27°15' E 153°55'.
Warning: this ship's position is 19 days out of date.

Length 171 m; draft 7.5 m.

Type: Ship. MMSI: 220209000.

Date/timePositionNaut miles runAvg speedWind from/ knotsBaromVisibWave heightAir tempDewpointWater temp
2016-May-06 01:34S 27°15' E 153°55'1313.0
2016-May-06 00:33S 27°03' E 153°49'1211.3
2016-May-05 23:30S 26°52' E 153°44'13 6.8
2016-May-05 21:33S 26°45' E 153°32'8 7.7
2016-May-05 20:33S 26°44' E 153°23'8 7.9
2016-May-05 19:33S 26°43' E 153°14'7 6.8
2016-May-05 18:33S 26°49' E 153°10'1312.9
2016-May-05 17:34S 27°01' E 153°15'1312.9
2016-May-05 16:34S 27°13' E 153°20'1313.0
2016-May-05 15:33S 27°22' E 153°10'1 0.8
2016-May-05 14:28S 27°23' E 153°10'0 0.0
2016-May-05 13:28S 27°23' E 153°10'0 0.0
2016-May-05 12:28S 27°23' E 153°10'0 0.0
2016-May-05 11:28S 27°23' E 153°10'0 0.0
2016-May-05 10:31S 27°23' E 153°10'0 0.0
2016-May-05 09:28S 27°23' E 153°10'0 0.0
2016-May-05 05:28S 27°23' E 153°10'0 0.0
2016-May-04 23:16S 27°23' E 153°10'0 0.0
2016-May-04 22:28S 27°23' E 153°10'0 0.0
2016-May-04 21:22S 27°23' E 153°10'0 0.1
2016-May-04 20:28S 27°23' E 153°10'0 0.1
2016-May-04 19:28S 27°23' E 153°10'2 2.6
2016-May-04 18:33S 27°21' E 153°11'8 8.0
2016-May-04 17:33S 27°15' E 153°17'1111.0
2016-May-04 16:34S 27°04' E 153°18'1312.5
2016-May-04 15:34S 26°54' E 153°11'1110.7
2016-May-04 14:34S 26°43' E 153°10'  

Dump ship's entire track history